Map

Track Data

SID SEASON NUMBER BASIN SUBBASIN NAME ISO_TIME NATURE LAT LON WMO_WIND WMO_PRES WMO_AGENCY TRACK_TYPE DIST2LAND LANDFALL IFLAG USA_AGENCY USA_ATCF_ID USA_LAT USA_LON USA_RECORD USA_STATUS USA_WIND USA_PRES USA_SSHS USA_R34_NE USA_R34_SE USA_R34_SW USA_R34_NW USA_R50_NE USA_R50_SE USA_R50_SW USA_R50_NW USA_R64_NE USA_R64_SE USA_R64_SW USA_R64_NW USA_POCI USA_ROCI USA_RMW USA_EYE TOKYO_LAT TOKYO_LON TOKYO_GRADE TOKYO_WIND TOKYO_PRES TOKYO_R50_DIR TOKYO_R50_LONG TOKYO_R50_SHORT TOKYO_R30_DIR TOKYO_R30_LONG TOKYO_R30_SHORT TOKYO_LAND CMA_LAT CMA_LON CMA_CAT CMA_WIND CMA_PRES HKO_LAT HKO_LON HKO_CAT HKO_WIND HKO_PRES NEWDELHI_LAT NEWDELHI_LON NEWDELHI_GRADE NEWDELHI_WIND NEWDELHI_PRES NEWDELHI_CI NEWDELHI_DP NEWDELHI_POCI REUNION_LAT REUNION_LON REUNION_TYPE REUNION_WIND REUNION_PRES REUNION_TNUM REUNION_CI REUNION_RMW REUNION_R34_NE REUNION_R34_SE REUNION_R34_SW REUNION_R34_NW REUNION_R50_NE REUNION_R50_SE REUNION_R50_SW REUNION_R50_NW REUNION_R64_NE REUNION_R64_SE REUNION_R64_SW REUNION_R64_NW BOM_LAT BOM_LON BOM_TYPE BOM_WIND BOM_PRES BOM_TNUM BOM_CI BOM_RMW BOM_R34_NE BOM_R34_SE BOM_R34_SW BOM_R34_NW BOM_R50_NE BOM_R50_SE BOM_R50_SW BOM_R50_NW BOM_R64_NE BOM_R64_SE BOM_R64_SW BOM_R64_NW BOM_ROCI BOM_POCI BOM_EYE BOM_POS_METHOD BOM_PRES_METHOD NADI_LAT NADI_LON NADI_CAT NADI_WIND NADI_PRES WELLINGTON_LAT WELLINGTON_LON WELLINGTON_WIND WELLINGTON_PRES DS824_LAT DS824_LON DS824_STAGE DS824_WIND DS824_PRES TD9636_LAT TD9636_LON TD9636_STAGE TD9636_WIND TD9636_PRES TD9635_LAT TD9635_LON TD9635_WIND TD9635_PRES TD9635_ROCI NEUMANN_LAT NEUMANN_LON NEUMANN_CLASS NEUMANN_WIND NEUMANN_PRES MLC_LAT MLC_LON MLC_CLASS MLC_WIND MLC_PRES USA_GUST BOM_GUST BOM_GUST_PER REUNION_GUST REUNION_GUST_PER USA_SEAHGT USA_SEARAD_NE USA_SEARAD_SE USA_SEARAD_SW USA_SEARAD_NW STORM_SPEED STORM_DIR
1958039S08101 1958 12 SI WA NOT_NAMED 1958-02-07 16:00:00 NR -8.30000 101.000 main 467 467 __________O___ -1 -8.30000 101.000 1 20 0 0
1958039S08101 1958 12 SI WA NOT_NAMED 1958-02-07 18:00:00 TS -8.30185 101.000 main 467 467 O________OP___ jtwc_sh SH131958 -8.30000 101.000 20 -1 -8.30000 101.000 TC 20 -8.30369 101.001 1 20 0 0
1958039S08101 1958 12 SI WA NOT_NAMED 1958-02-07 21:00:00 TS -8.29461 101.009 main 467 467 P________PP___ SH131958 -8.28000 101.020 20 -1 -8.28000 101.020 TC 20 -8.31410 100.995 1 20 0 0
1958039S08101 1958 12 SI WA NOT_NAMED 1958-02-08 00:00:00 TS -8.31481 100.989 main 467 467 O________OP___ jtwc_sh SH131958 -8.30000 101.000 20 -1 -8.30000 101.000 TC 20 -8.33702 100.973 1 20 1 233
1958039S08101 1958 12 SI WA NOT_NAMED 1958-02-08 01:00:00 TS -8.32848 100.974 1005 bom main 467 467 P_____O__PP___ SH131958 -8.32192 100.978 20 -1 -8.30000 101.000 1005 -8.32192 100.978 TC 20 -8.34873 100.960 1 20 2 227
1958039S08101 1958 12 SI WA NOT_NAMED 1958-02-08 03:00:00 TS -8.38094 100.920 main 482 482 P_____P__PP___ SH131958 -8.38501 100.915 20 -1 -8.36667 100.933 1005 -8.38501 100.915 TC 20 -8.37995 100.924 1 20 2 225
1958039S08101 1958 12 SI WA NOT_NAMED 1958-02-08 04:00:00 TS -8.41199 100.888 1005 bom main 482 482 P_____O__PO___ SH131958 -8.42247 100.878 20 -1 -8.40000 100.900 1005 -8.42247 100.878 TC 20 -8.40000 100.900 1 20 3 226
1958039S08101 1958 12 SI WA NOT_NAMED 1958-02-08 06:00:00 TS -8.48029 100.817 main 498 498 O_____P__OP___ jtwc_sh SH131958 -8.50000 100.800 20 -1 -8.46667 100.833 1005 -8.50000 100.800 TC 20 -8.44955 100.840 1 19 3 227
1958039S08101 1958 12 SI WA NOT_NAMED 1958-02-08 07:00:00 TS -8.51373 100.783 1005 bom main 498 498 P_____O__PP___ SH131958 -8.53333 100.769 19 -1 -8.50000 100.800 1005 -8.53333 100.769 TC 19 -8.47846 100.804 1 18 3 225
1958039S08101 1958 12 SI WA NOT_NAMED 1958-02-08 09:00:00 TS -8.58094 100.714 main 513 513 P_____P__PP___ SH131958 -8.59999 100.707 17 -1 -8.56666 100.736 1005 -8.59999 100.707 TC 17 -8.54279 100.724 1 17 3 227
1958039S08101 1958 12 SI WA NOT_NAMED 1958-02-08 10:00:00 TS -8.61550 100.676 1005 bom main 513 513 P_____O__PP___ SH131958 -8.63332 100.675 16 -1 -8.60000 100.700 1005 -8.63332 100.675 TC 16 -8.57753 100.680 1 17 3 230
1958039S08101 1958 12 SI WA NOT_NAMED 1958-02-08 12:00:00 TS -8.68341 100.592 main 529 529 O_____P__OP___ jtwc_sh SH131958 -8.70000 100.600 15 -1 -8.66668 100.604 1005 -8.70000 100.600 TC 15 -8.65039 100.588 1 16 3 233
1958039S08101 1958 12 SI WA NOT_NAMED 1958-02-08 15:00:00 TS -8.78593 100.447 main 550 550 P_____P__PP___ SH131958 -8.80001 100.450 15 -1 -8.76667 100.445 1005 -8.80001 100.450 TC 15 -8.76298 100.447 1 15 4 234
1958039S08101 1958 12 SI WA NOT_NAMED 1958-02-08 16:00:00 TS -8.82000 100.398 1005 bom main 550 550 P_____O__PO___ SH131958 -8.83334 100.398 15 -1 -8.80000 100.400 1005 -8.83334 100.398 TC 15 -8.80000 100.400 1 15 3 232
1958039S08101 1958 12 SI WA NOT_NAMED 1958-02-08 18:00:00 TS -8.88614 100.311 main 566 566 O_____P__OP___ jtwc_sh SH131958 -8.90000 100.300 15 -1 -8.86666 100.340 1005 -8.90000 100.300 TC 15 -8.86403 100.317 1 15 3 231
1958039S08101 1958 12 SI WA NOT_NAMED 1958-02-08 19:00:00 TS -8.91918 100.270 1005 bom main 566 566 P_____O__PP___ SH131958 -8.93332 100.264 15 -1 -8.90000 100.300 1005 -8.93332 100.264 TC 15 -8.89592 100.275 1 16 3 233
1958039S08101 1958 12 SI WA NOT_NAMED 1958-02-08 21:00:00 TS -8.98534 100.180 main 581 581 P_____P__PP___ SH131958 -8.99998 100.200 17 -1 -8.96667 100.164 1005 -8.99998 100.200 TC 17 -8.96003 100.192 1 17 3 232
1958039S08101 1958 12 SI WA NOT_NAMED 1958-02-08 22:00:00 TS -9.01849 100.136 1005 bom main 588 588 P_____O__PP___ SH131958 -9.03332 100.169 18 -1 -9.00000 100.100 1005 -9.03332 100.169 TC 18 -8.99248 100.150 1 17 3 230
1958039S08101 1958 12 SI WA NOT_NAMED 1958-02-09 00:00:00 TS -9.08457 100.059 main 597 597 O_____P__OP___ jtwc_sh SH131958 -9.10000 100.100 20 -1 -9.06409 100.027 1005 -9.10000 100.100 TC 20 -9.05875 100.067 1 18 3 229
1958039S08101 1958 12 SI WA NOT_NAMED 1958-02-09 01:00:00 TS -9.11848 100.019 1005 bom main 604 604 P_____O__PP___ SH131958 -9.13334 100.053 20 -1 -9.10000 100.000 1005 -9.13334 100.053 TC 20 -9.09280 100.025 1 18 3 229
1958039S08101 1958 12 SI WA NOT_NAMED 1958-02-09 03:00:00 TS -9.19168 99.9338 main 619 619 P_____P__PP___ SH131958 -9.20001 99.9500 20 -1 -9.19629 99.9333 1005 -9.20001 99.9500 TC 20 -9.16331 99.9417 1 19 3 228
1958039S08101 1958 12 SI WA NOT_NAMED 1958-02-09 04:00:00 TS -9.22975 99.8916 main 619 619 P_____P__PO___ SH131958 -9.23334 99.8975 20 -1 -9.25000 99.9000 1005 -9.23334 99.8975 TC 20 -9.20000 99.9000 1 20 3 225
1958039S08101 1958 12 SI WA NOT_NAMED 1958-02-09 06:00:00 TS -9.30697 99.8121 main 635 635 O_____P__OP___ jtwc_sh SH131958 -9.30000 99.8000 20 -1 -9.35463 99.8333 1005 -9.30000 99.8000 TC 20 -9.28020 99.8271 1 20 3 224
1958039S08101 1958 12 SI WA NOT_NAMED 1958-02-09 07:00:00 TS -9.34385 99.7790 1005 bom main 635 635 P_____O__PP___ SH131958 -9.33070 99.7636 20 -1 -9.40000 99.8000 1005 -9.33070 99.7636 TC 20 -9.32181 99.7912 1 21 3 218
1958039S08101 1958 12 SI WA NOT_NAMED 1958-02-09 09:00:00 TS -9.41429 99.7186 main 650 650 P_____P__PP___ SH131958 -9.39248 99.7000 22 -1 -9.46867 99.7361 1005 -9.39248 99.7000 TC 22 -9.40689 99.7181 1 22 3 219
1958039S08101 1958 12 SI WA NOT_NAMED 1958-02-09 10:00:00 TS -9.45005 99.6879 1005 bom main 659 659 P_____O__PP___ SH131958 -9.42542 99.6691 23 -1 -9.50000 99.7000 1005 -9.42542 99.6691 TC 23 -9.44990 99.6799 1 22 3 221
1958039S08101 1958 12 SI WA NOT_NAMED 1958-02-09 12:00:00 TS -9.52617 99.6190 main 666 666 O_____P__OP___ jtwc_sh SH131958 -9.50000 99.6000 25 -1 -9.56667 99.6108 1005 -9.50000 99.6000 TC 25 -9.53571 99.5982 1 23 3 223
1958039S08101 1958 12 SI WA NOT_NAMED 1958-02-09 15:00:00 TS -9.65529 99.4906 main 690 690 P_____P__PP___ SH131958 -9.64999 99.4650 25 -1 -9.66667 99.4536 1005 -9.64999 99.4650 TC 25 -9.66042 99.4551 1 24 4 226
1958039S08101 1958 12 SI WA NOT_NAMED 1958-02-09 16:00:00 TS -9.69897 99.4416 1005 bom main 697 697 P_____O__PO___ SH131958 -9.70246 99.4133 25 -1 -9.70000 99.4000 1005 -9.70246 99.4133 TC 25 -9.70000 99.4000 1 25 4 230
1958039S08101 1958 12 SI WA NOT_NAMED 1958-02-09 18:00:00 TS -9.78081 99.3399 main 713 713 O_____P__OP___ jtwc_sh SH131958 -9.80000 99.3000 25 -1 -9.76667 99.2926 1005 -9.80000 99.3000 TC 25 -9.76687 99.3120 1 23 4 235
1958039S08101 1958 12 SI WA NOT_NAMED 1958-02-09 21:00:00 TS -9.88617 99.1715 main 728 728 P_____P__PP___ SH131958 -9.90745 99.1300 22 -1 -9.86667 99.1422 1005 -9.90745 99.1300 TC 22 -9.86078 99.1557 1 20 4 239
1958039S08101 1958 12 SI WA NOT_NAMED 1958-02-09 22:00:00 TS -9.91916 99.1059 1005 bom main 735 735 P_____O__PP___ SH131958 -9.93871 99.0624 21 -1 -9.90000 99.1000 1005 -9.93871 99.0624 TC 21 -9.89182 99.0920 1 20 5 244
1958039S08101 1958 12 SI WA NOT_NAMED 1958-02-10 00:00:00 TS -9.98445 98.9610 main 751 758 O_____P__OP___ jtwc_sh SH131958 -10.0000 98.9000 20 -1 -9.96663 99.0650 1005 -10.0000 98.9000 TC 20 -9.95561 98.9398 1 18 5 247
1958039S08101 1958 12 SI WA NOT_NAMED 1958-02-10 01:00:00 TS -10.0165 98.8707 1005 bom main 758 758 P_____O__PP___ SH131958 -10.0306 98.8162 19 -1 -10.0000 99.0000 1005 -10.0306 98.8162 TC 19 -9.98909 98.8487 1 17 7 254
1958039S08101 1958 12 SI WA NOT_NAMED 1958-02-10 03:00:00 TS -10.0800 98.6294 main 786 786 P_____P__PP___ SH131958 -10.0923 98.6174 17 -1 -10.0588 98.6963 1005 -10.0923 98.6174 TC 17 -10.0609 98.6301 1 15 8 255
1958039S08101 1958 12 SI WA NOT_NAMED 1958-02-10 04:00:00 TS -10.1158 98.4848 1005 bom main 793 793 P_____O__PO___ SH131958 -10.1253 98.4969 16 -1 -10.1000 98.5000 1005 -10.1253 98.4969 TC 16 -10.1000 98.5000 1 15 10 255
1958039S08101 1958 12 SI WA NOT_NAMED 1958-02-10 06:00:00 TS -10.2039 98.1551 main 822 829 O_____P__OP___ jtwc_sh SH131958 -10.2000 98.2000 15 -1 -10.2358 98.1055 1005 -10.2000 98.2000 TC 15 -10.1838 98.1700 1 16 11 255
1958039S08101 1958 12 SI WA NOT_NAMED 1958-02-10 07:00:00 TS -10.2514 97.9660 1005 bom main 845 845 P_____O__PP___ SH131958 -10.2444 98.0124 16 -1 -10.3000 97.9000 1005 -10.2444 98.0124 TC 16 -10.2282 97.9836 1 17 12 257
1958039S08101 1958 12 SI WA NOT_NAMED 1958-02-10 09:00:00 TS -10.3410 97.5555 main 874 881 P_____P__PP___ SH131958 -10.3427 97.5800 20 -1 -10.3702 97.5000 1005 -10.3427 97.5800 TC 20 -10.3218 97.5799 1 19 13 258
1958039S08101 1958 12 SI WA NOT_NAMED 1958-02-10 10:00:00 TS -10.3871 97.3406 1005 bom main 904 904 P_____O__PP___ SH131958 -10.3947 97.3502 21 -1 -10.4000 97.3000 1005 -10.3947 97.3502 TC 21 -10.3710 97.3676 1 20 13 257
1958039S08101 1958 12 SI WA NOT_NAMED 1958-02-10 12:00:00 TS -10.4869 96.9091 main 940 940 O_____P__OP___ jtwc_sh SH131958 -10.5000 96.9000 25 -1 -10.4845 96.8953 1005 -10.5000 96.9000 TC 25 -10.4742 96.9341 1 21 13 256
1958039S08101 1958 12 SI WA NOT_NAMED 1958-02-10 15:00:00 TS -10.6414 96.3051 main 992 1000 P_____P__PP___ SH131958 -10.6424 96.3274 25 -1 -10.6409 96.2945 1005 -10.6424 96.3274 TC 25 -10.6411 96.2983 1 24 12 255
1958039S08101 1958 12 SI WA NOT_NAMED 1958-02-10 16:00:00 TS -10.6965 96.1130 1005 bom main 1015 1015 P_____O__PO___ SH131958 -10.6920 96.1478 25 -1 -10.7000 96.1000 1005 -10.6920 96.1478 TC 25 -10.7000 96.1000 1 25 12 253
1958039S08101 1958 12 SI WA NOT_NAMED 1958-02-10 18:00:00 TS -10.8126 95.7445 main 1053 1053 O_____P__OP___ jtwc_sh SH131958 -10.8000 95.8000 25 -1 -10.8258 95.7185 1005 -10.8000 95.8000 TC 25 -10.8191 95.7370 1 24 11 251
1958039S08101 1958 12 SI WA NOT_NAMED 1958-02-10 21:00:00 TS -11.0065 95.2139 main 1108 1108 P_____P__PP___ SH131958 -10.9925 95.2700 22 -1 -11.0312 95.1734 1005 -10.9925 95.2700 TC 22 -11.0106 95.2296 1 22 11 249
1958039S08101 1958 12 SI WA NOT_NAMED 1958-02-10 22:00:00 TS -11.0739 95.0501 1005 bom main 1123 1123 P_____O__PP___ SH131958 -11.0612 95.1042 21 -1 -11.1000 95.0000 1005 -11.0612 95.1042 TC 21 -11.0773 95.0727 1 22 10 246
1958039S08101 1958 12 SI WA NOT_NAMED 1958-02-11 00:00:00 TS -11.2096 94.7441 main 1159 1159 O_____P__OP___ jtwc_sh SH131958 -11.2000 94.8000 20 -1 -11.2333 94.6398 1005 -11.2000 94.8000 TC 20 -11.2145 94.7807 1 21 10 245
1958039S08101 1958 12 SI WA NOT_NAMED 1958-02-11 01:00:00 TS -11.2750 94.6106 1005 bom main 1174 1174 P_____O__PP___ SH131958 -11.2640 94.6557 20 -1 -11.3000 94.5000 1005 -11.2640 94.6557 TC 20 -11.2846 94.6467 1 21 8 240
1958039S08101 1958 12 SI WA NOT_NAMED 1958-02-11 03:00:00 TS -11.4074 94.3935 main 1194 1194 P_____P__PP___ SH131958 -11.3924 94.3975 20 -1 -11.4333 94.3504 1004 -11.3924 94.3975 TC 20 -11.4275 94.4058 1 20 7 236
1958039S08101 1958 12 SI WA NOT_NAMED 1958-02-11 04:00:00 TS -11.4753 94.3020 1004 bom main 1209 1209 P_____O__PO___ SH131958 -11.4587 94.2854 20 -1 -11.5000 94.3000 1004 -11.4587 94.2854 TC 20 -11.5000 94.3000 1 20 7 231
1958039S08101 1958 12 SI WA NOT_NAMED 1958-02-11 06:00:00 TS -11.6139 94.1353 main 1228 1228 O_____P__OP___ jtwc_sh SH131958 -11.6000 94.1000 20 -1 -11.6333 94.1667 1004 -11.6000 94.1000 TC 20 -11.6361 94.1099 1 18 6 228
1958039S08101 1958 12 SI WA NOT_NAMED 1958-02-11 07:00:00 TS -11.6865 94.0616 1004 bom main 1238 1238 P_____O__PP___ SH131958 -11.6776 94.0271 19 -1 -11.7000 94.1000 1004 -11.6776 94.0271 TC 19 -11.7052 94.0294 1 17 6 221
1958039S08101 1958 12 SI WA NOT_NAMED 1958-02-11 09:00:00 TS -11.8368 93.9361 main 1258 1258 P_____P__PP___ SH131958 -11.8424 93.9199 17 -1 -11.8308 93.9641 1004 -11.8424 93.9199 TC 17 -11.8467 93.8939 1 15 6 217
1958039S08101 1958 12 SI WA NOT_NAMED 1958-02-11 10:00:00 TS -11.9150 93.8821 1004 bom main 1268 1268 P_____O__PP___ SH131958 -11.9278 93.8782 16 -1 -11.9000 93.9000 1004 -11.9278 93.8782 TC 16 -11.9196 93.8372 1 15 6 212
1958039S08101 1958 12 SI WA NOT_NAMED 1958-02-11 12:00:00 TS -12.0766 93.7838 main 1293 1293 O_____P__OP___ jtwc_sh SH131958 -12.1000 93.8000 15 -1 -12.0500 93.7833 1004 -12.1000 93.8000 TC 15 -12.0705 93.7417 1 13 6 210
1958039S08101 1958 12 SI WA NOT_NAMED 1958-02-11 15:00:00 TS -12.3253 93.6377 main 1323 1323 P_____P__PP___ SH131958 -12.3425 93.6425 12 -1 -12.3062 93.6396 1004 -12.3425 93.6425 TC 12 -12.3136 93.6313 1 10 6 209
1958039S08101 1958 12 SI WA NOT_NAMED 1958-02-11 16:00:00 TS -12.4127 93.5939 1004 bom main 1333 1333 P_____O__PO___ SH131958 -12.4254 93.5921 11 -1 -12.4000 93.6000 1004 -12.4254 93.5921 TC 11 -12.4000 93.6000 1 10 6 204
1958039S08101 1958 12 SI WA NOT_NAMED 1958-02-11 18:00:00 TS -12.5978 93.5076 main 1358 1358 O_____P__OP___ jtwc_sh SH131958 -12.6000 93.5000 10 -1 -12.5982 93.5316 1004 -12.6000 93.5000 TC 10 -12.5907 93.5063 1 10 6 204
1958039S08101 1958 12 SI WA NOT_NAMED 1958-02-11 19:00:00 TS -12.6951 93.4654 1004 bom main 1368 1368 P_____O__PP___ SH131958 -12.6943 93.4557 10 -1 -12.7000 93.5000 1004 -12.6943 93.4557 TC 10 -12.6906 93.4639 1 10 6 201
1958039S08101 1958 12 SI WA NOT_NAMED 1958-02-11 21:00:00 TS -12.8952 93.3910 main 1393 1393 P_____P__PP___ SH131958 -12.8925 93.3775 10 -1 -12.9000 93.4412 1004 -12.8925 93.3775 TC 10 -12.8959 93.3904 1 10 6 199
1958039S08101 1958 12 SI WA NOT_NAMED 1958-02-11 22:00:00 TS -12.9971 93.3575 1004 bom main 1403 1403 P_____O__PP___ SH131958 -12.9946 93.3455 10 -1 -13.0000 93.4000 1004 -12.9946 93.3455 TC 10 -12.9999 93.3602 1 10 6 198
1958039S08101 1958 12 SI WA NOT_NAMED 1958-02-12 00:00:00 TS -13.2015 93.2928 main 1428 1428 O_____P__OP___ jtwc_sh SH131958 -13.2000 93.3000 10 -1 -13.2000 93.2484 1003 -13.2000 93.3000 TC 10 -13.2073 93.3153 1 10 6 194
1958039S08101 1958 12 SI WA NOT_NAMED 1958-02-12 01:00:00 TS -13.3042 93.2719 1003 bom main 1436 1436 P_____O__PP___ SH131958 -13.3052 93.2807 10 -1 -13.3000 93.2000 1003 -13.3052 93.2807 TC 10 -13.3093 93.3014 1 10 6 0
1958039S08101 1958 12 SI WA NOT_NAMED 1958-02-12 03:00:00 TS -13.5080 93.2775 main 1452 1452 P_____P__PP___ SH131958 -13.5150 93.2625 10 -1 -13.5000 93.2504 1003 -13.5150 93.2625 TC 10 -13.5063 93.2933 1 10 6 175
1958039S08101 1958 12 SI WA NOT_NAMED 1958-02-12 04:00:00 TS -13.6071 93.2944 1003 bom main 1460 1460 P_____O__PO___ SH131958 -13.6158 93.2655 10 -1 -13.6000 93.3000 1003 -13.6158 93.2655 TC 10 -13.6000 93.3000 1 10 6 166
1958039S08101 1958 12 SI WA NOT_NAMED 1958-02-12 06:00:00 TS -13.7924 93.3424 main 1477 1469 O_____P__OP___ jtwc_sh SH131958 -13.8000 93.3000 10 -1 -13.8000 93.3667 1002 -13.8000 93.3000 TC 10 -13.7619 93.3453 1 14 6 163
1958039S08101 1958 12 SI WA NOT_NAMED 1958-02-12 07:00:00 TS -13.8771 93.3778 1002 bom main 1478 1478 P_____O__PP___ SH131958 -13.8755 93.3329 13 -1 -13.9000 93.4000 1002 -13.8755 93.3329 TC 13 -13.8385 93.3794 1 16 6 153
1958039S08101 1958 12 SI WA NOT_NAMED 1958-02-12 09:00:00 TS -14.0386 93.4681 main 1479 1487 P_____P__PP___ SH131958 -14.0075 93.4275 20 -1 -14.1077 93.4641 1002 -14.0075 93.4275 TC 20 -13.9858 93.4641 1 20 6 150
1958039S08101 1958 12 SI WA NOT_NAMED 1958-02-12 10:00:00 TS -14.1146 93.5206 1002 bom main 1487 1487 P_____O__PP___ SH131958 -14.0696 93.4837 23 -1 -14.2000 93.5000 1002 -14.0696 93.4837 TC 23 -14.0576 93.5122 1 22 5 143
1958039S08101 1958 12 SI WA NOT_NAMED 1958-02-12 12:00:00 TS -14.2547 93.6339 main 1497 1490 O_____P__OP___ jtwc_sh SH131958 -14.2000 93.6000 30 -1 -14.3182 93.5893 1001 -14.2000 93.6000 TC 30 -14.2006 93.6133 1 26 5 143
1958039S08101 1958 12 SI WA NOT_NAMED 1958-02-12 15:00:00 TS -14.4696 93.7975 main 1499 1499 P_____P__PP___ SH131958 -14.4350 93.7500 32 -1 -14.4443 93.7465 1001 -14.4350 93.7500 TC 32 -14.4220 93.7585 1 32 5 144
1958039S08101 1958 12 SI WA NOT_NAMED 1958-02-12 16:00:00 TS -14.5468 93.8496 1001 bom main 1499 1499 P_____O__PO___ SH131958 -14.5200 93.8000 33 -1 -14.5000 93.8000 1001 -14.5200 93.8000 TC 33 -14.5000 93.8000 2 35 6 150
1958039S08101 1958 12 SI WA NOT_NAMED 1958-02-12 18:00:00 TS -14.7240 93.9496 main 1509 1502 O_____P__OP___ jtwc_sh SH131958 -14.7000 93.9000 35 0 -14.6778 93.8926 1000 -14.7000 93.9000 TC 35 -14.6875 93.8974 2 35 6 152
1958039S08101 1958 12 SI WA NOT_NAMED 1958-02-12 21:00:00 TS -15.0149 94.1067 main 1520 1520 P_____P__PP___ SH131958 -15.0075 94.1098 35 0 -14.9937 94.0422 999 -15.0075 94.1098 TC 35 -14.9817 94.0258 2 35 7 154
1958039S08101 1958 12 SI WA NOT_NAMED 1958-02-12 22:00:00 TS -15.1116 94.1462 999 bom main 1526 1518 P_____O__PP___ SH131958 -15.1104 94.1630 35 0 -15.1000 94.1000 999 -15.1104 94.1630 TC 35 -15.0795 94.0569 2 35 6 164
1958039S08101 1958 12 SI WA NOT_NAMED 1958-02-13 00:00:00 TS -15.2950 94.1906 main 1531 1531 O_____P__OP___ jtwc_sh SH131958 -15.3000 94.2000 35 0 -15.3055 94.2615 998 -15.3000 94.2000 TC 35 -15.2694 94.0914 2 35 5 171
1958039S08101 1958 12 SI WA NOT_NAMED 1958-02-13 01:00:00 TS -15.3798 94.1755 998 bom main 1538 1538 P_____O__PP___ SH131958 -15.3833 94.1703 35 0 -15.4000 94.3000 998 -15.3833 94.1703 TC 35 -15.3596 94.0912 2 35 5 208
1958039S08101 1958 12 SI WA NOT_NAMED 1958-02-13 03:00:00 TS -15.5329 94.0591 main 1553 1562 P_____P__PP___ SH131958 -15.5300 94.0326 35 0 -15.5667 94.1854 998 -15.5300 94.0326 TC 35 -15.5258 94.0472 2 35 6 222
1958039S08101 1958 12 SI WA NOT_NAMED 1958-02-13 04:00:00 TS -15.6005 93.9675 main 1569 1569 P_____P__PO___ SH131958 -15.5933 93.9339 35 0 -15.6376 94.0627 998 -15.5933 93.9339 TC 35 -15.6000 94.0000 2 35 7 240
1958039S08101 1958 12 SI WA NOT_NAMED 1958-02-13 06:00:00 TS -15.7128 93.7385 main 1601 1601 O_____P__OP___ jtwc_sh SH131958 -15.7000 93.7000 35 0 -15.7542 93.7561 998 -15.7000 93.7000 TC 35 -15.7100 93.8362 2 32 7 245
1958039S08101 1958 12 SI WA NOT_NAMED 1958-02-13 07:00:00 TS -15.7584 93.6180 998 bom main 1616 1616 P_____O__PP___ SH131958 -15.7421 93.5837 33 -1 -15.8000 93.6000 998 -15.7421 93.5837 TC 33 -15.7563 93.7294 2 31 8 252
1958039S08101 1958 12 SI WA NOT_NAMED 1958-02-13 09:00:00 TS -15.8324 93.3625 main 1633 1642 P_____P__PP___ SH131958 -15.8075 93.3224 30 -1 -15.8707 93.3353 998 -15.8075 93.3224 TC 30 -15.8368 93.4767 2 28 8 254
1958039S08101 1958 12 SI WA NOT_NAMED 1958-02-13 10:00:00 TS -15.8647 93.2256 998 bom main 1657 1657 P_____O__PP___ SH131958 -15.8363 93.1829 28 -1 -15.9000 93.2000 998 -15.8363 93.1829 TC 28 -15.8731 93.3349 2 27 8 256
1958039S08101 1958 12 SI WA NOT_NAMED 1958-02-13 12:00:00 TS -15.9293 92.9440 main 1680 1680 O_____P__OP___ jtwc_sh SH131958 -15.9000 92.9000 25 -1 -15.9537 92.9333 998 -15.9000 92.9000 TC 25 -15.9427 93.0309 2 24 8 255
1958039S08101 1958 12 SI WA NOT_NAMED 1958-02-13 15:00:00 TS -16.0477 92.5233 main 1717 1726 P_____P__PP___ SH131958 -16.0349 92.4999 22 -1 -16.0516 92.5333 998 -16.0349 92.4999 TC 22 -16.0558 92.5554 2 21 8 253
1958039S08101 1958 12 SI WA NOT_NAMED 1958-02-13 16:00:00 TS -16.0952 92.3834 998 bom main 1733 1733 P_____O__PO___ SH131958 -16.0866 92.3666 21 -1 -16.1000 92.4000 998 -16.0866 92.3666 TC 21 -16.1000 92.4000 1 20 9 247
1958039S08101 1958 12 SI WA NOT_NAMED 1958-02-13 18:00:00 TS -16.2107 92.1134 main 1763 1763 O_____P__OP___ jtwc_sh SH131958 -16.2000 92.1000 20 -1 -16.2298 92.1333 998 -16.2000 92.1000 TC 20 -16.2239 92.1334 1 20 9 245
1958039S08101 1958 12 SI WA NOT_NAMED 1958-02-13 19:00:00 TS -16.2747 91.9800 998 bom main 1778 1778 P_____O__PP___ SH131958 -16.2609 91.9667 20 -1 -16.3000 92.0000 998 -16.2609 91.9667 TC 20 -16.2904 92.0002 1 21 9 243
1958039S08101 1958 12 SI WA NOT_NAMED 1958-02-13 21:00:00 TS -16.4079 91.7134 main 1808 1808 P_____P__PP___ SH131958 -16.3924 91.7000 22 -1 -16.4333 91.7333 998 -16.3924 91.7000 TC 22 -16.4290 91.7336 1 22 9 242
1958039S08101 1958 12 SI WA NOT_NAMED 1958-02-13 22:00:00 TS -16.4767 91.5800 998 bom main 1823 1823 P_____O__PP___ SH131958 -16.4612 91.5666 23 -1 -16.5000 91.6000 998 -16.4612 91.5666 TC 23 -16.4997 91.6002 1 22 9 242
1958039S08101 1958 12 SI WA NOT_NAMED 1958-02-14 00:00:00 TS -16.6148 91.3134 main 1853 1853 O_____P__OP___ jtwc_sh SH131958 -16.6000 91.3000 25 -1 -16.6333 91.3333 998 -16.6000 91.3000 TC 25 -16.6405 91.3335 1 23 9 242
1958039S08101 1958 12 SI WA NOT_NAMED 1958-02-14 01:00:00 TS -16.6844 91.1800 998 bom main 1868 1868 P_____O__PP___ SH131958 -16.6719 91.1667 25 -1 -16.7000 91.2000 998 -16.6719 91.1667 TC 25 -16.7091 91.2001 1 23 9 241
1958039S08101 1958 12 SI WA NOT_NAMED 1958-02-14 03:00:00 TS -16.8236 90.9134 main 1898 1898 P_____P__PP___ SH131958 -16.8149 90.9000 25 -1 -16.8412 90.9333 998 -16.8149 90.9000 TC 25 -16.8396 90.9334 1 24 9 242
1958039S08101 1958 12 SI WA NOT_NAMED 1958-02-14 04:00:00 TS -16.8878 90.7800 998 bom main 1914 1914 P_____O__PO___ SH131958 -16.8824 90.7667 25 -1 -16.9000 90.8000 998 -16.8824 90.7667 TC 25 -16.9000 90.8000 1 25 8 246
1958039S08101 1958 12 SI WA NOT_NAMED 1958-02-14 06:00:00 TS -16.9912 90.5190 main 1943 1943 O_____P__OP___ jtwc_sh SH131958 -17.0000 90.5000 25 -1 -16.9642 90.5333 998 -17.0000 90.5000 TC 25 -16.9919 90.5615 1 25 8 249
1958039S08101 1958 12 SI WA NOT_NAMED 1958-02-14 07:00:00 TS -17.0337 90.3887 998 bom main 1949 1949 P_____O__PP___ SH131958 -17.0421 90.3666 25 -1 -17.0000 90.4000 998 -17.0421 90.3666 TC 25 -17.0334 90.4438 1 26 8 251
1958039S08101 1958 12 SI WA NOT_NAMED 1958-02-14 09:00:00 TS -17.1194 90.1275 main 1975 1975 P_____P__PP___ SH131958 -17.1074 90.0998 27 -1 -17.1323 90.1334 998 -17.1074 90.0998 TC 27 -17.1110 90.2048 1 27 8 251
1958039S08101 1958 12 SI MM NOT_NAMED 1958-02-14 10:00:00 TS -17.1597 89.9961 998 bom main 1990 1990 P_____O__PP___ SH131958 -17.1362 89.9665 28 -1 -17.2000 90.0000 998 -17.1362 89.9665 TC 28 -17.1485 90.0811 1 27 8 254
1958039S08101 1958 12 SI MM NOT_NAMED 1958-02-14 12:00:00 TS -17.2297 89.7303 main 2006 2006 O_____P__OP___ jtwc_sh SH131958 -17.2000 89.7000 30 -1 -17.2740 89.7332 997 -17.2000 89.7000 TC 30 -17.2245 89.8190 1 28 8 253
1958039S08101 1958 12 SI MM NOT_NAMED 1958-02-14 15:00:00 TS -17.3478 89.3354 main 2038 2047 P_____P__PP___ SH131958 -17.3347 89.3373 30 -1 -17.3574 89.3332 997 -17.3347 89.3373 TC 30 -17.3514 89.3698 1 29 8 252
1958039S08101 1958 12 SI MM NOT_NAMED 1958-02-14 16:00:00 TS -17.3951 89.1957 997 bom main 2053 2053 P_____O__PO___ SH131958 -17.3863 89.2060 30 -1 -17.4000 89.2000 997 -17.3863 89.2060 TC 30 -17.4000 89.2000 1 30 9 249
1958039S08101 1958 12 SI MM NOT_NAMED 1958-02-14 18:00:00 TS -17.5077 88.8918 main 2080 2080 O_____P__OP___ jtwc_sh SH131958 -17.5000 88.9000 30 -1 -17.5293 88.9333 997 -17.5000 88.9000 TC 30 -17.5091 88.8256 1 28 10 249
1958039S08101 1958 12 SI MM NOT_NAMED 1958-02-14 19:00:00 TS -17.5717 88.7233 997 bom main 2101 2101 P_____O__PP___ SH131958 -17.5619 88.7175 29 -1 -17.6000 88.8000 997 -17.5619 88.7175 TC 29 -17.5690 88.6227 1 27 11 248
1958039S08101 1958 12 SI MM NOT_NAMED 1958-02-14 21:00:00 TS -17.7049 88.3677 main 2127 2133 P_____P__PP___ SH131958 -17.6932 88.3004 27 -1 -17.7332 88.5462 997 -17.6932 88.3004 TC 27 -17.6977 88.1900 1 25 11 249
1958039S08101 1958 12 SI MM NOT_NAMED 1958-02-15 00:00:00 TS -17.9146 87.8045 main 2182 2182 O_____P__OP___ jtwc_sh SH131958 -17.9000 87.6000 25 -1 -17.9333 88.1483 997 -17.9000 87.6000 TC 25 -17.9069 87.4891 1 23 11 248
1958039S08101 1958 12 SI MM NOT_NAMED 1958-02-15 01:00:00 NR -17.9897 87.6228 997 bom main 2203 2203 ______O___P___ SH131958 -1 -18.0000 88.0000 997 TC -17.9794 87.2457 1 22 12 249
1958039S08101 1958 12 SI MM NOT_NAMED 1958-02-15 03:00:00 NR -18.1299 87.2112 main 2237 2237 ______P___P___ SH131958 -1 -18.1334 87.6723 997 TC -18.1263 86.7501 1 20 13 250
1958039S08101 1958 12 SI MM NOT_NAMED 1958-02-15 04:00:00 NR -18.2000 87.0000 998 bom main 2258 ______O___O___ SH131958 -1 -18.2000 87.5000 998 TC -18.2000 86.5000 1 20 13 251

About IBTrACS Database

This database is a web-friendly format of International Best Track Archive for Climate Stewardship (IBTrACS), a global best track data archive curated by NOAA dating back to 1842.

Updated: 2021-10-08